Time;durP1;ratioP1;P1;durP2;ratioP2;P2;SDS_P1;SDS_P2;PMS_P1;PMS_P2;Temp;Humidity;BMP_temperature;BMP_pressure;BME280_temperature;BME280_humidity;BME280_pressure;Samples;Min_cycle;Max_cycle;Signal;HPM_P1;HPM_P2
2021/03/18 00:01:45;;;;;;;22.30;20.20;;;29.90;91.30;;;;;;5050665;28;20198;-50
2021/03/18 00:04:17;;;;;;;21.88;19.95;;;29.90;91.30;;;;;;5050765;28;20198;-51
2021/03/18 00:06:48;;;;;;;20.10;18.33;;;29.90;91.40;;;;;;5051422;28;20309;-53
2021/03/18 00:09:19;;;;;;;19.83;17.88;;;29.90;91.50;;;;;;5051253;28;20201;-50
2021/03/18 00:11:51;;;;;;;20.13;18.23;;;30.00;91.50;;;;;;5051060;28;20208;-50
2021/03/18 00:14:22;;;;;;;22.65;20.42;;;30.00;91.60;;;;;;5061316;28;20212;-52
2021/03/18 00:16:53;;;;;;;22.20;20.17;;;30.00;91.60;;;;;;5064455;28;20861;-49
2021/03/18 00:19:24;;;;;;;19.88;18.00;;;30.00;91.70;;;;;;5065439;28;20499;-49
2021/03/18 00:21:54;;;;;;;20.55;18.70;;;30.00;91.70;;;;;;5054851;28;20801;-49
2021/03/18 00:24:25;;;;;;;21.73;19.73;;;30.10;91.80;;;;;;5051296;28;20204;-50
2021/03/18 00:26:57;;;;;;;21.20;19.27;;;30.10;91.90;;;;;;5050213;28;20226;-51
2021/03/18 00:29:27;;;;;;;21.08;19.17;;;30.10;92.00;;;;;;5053855;28;20210;-50
2021/03/18 00:31:58;;;;;;;19.15;17.65;;;30.10;92.10;;;;;;5050415;28;20281;-52
2021/03/18 00:34:29;;;;;;;21.73;19.85;;;30.20;92.20;;;;;;5049957;28;20209;-50
2021/03/18 00:36:59;;;;;;;24.70;22.40;;;30.20;92.50;;;;;;5049893;28;20200;-51
2021/03/18 00:39:30;;;;;;;22.25;20.35;;;30.30;92.50;;;;;;5050456;28;20208;-50
2021/03/18 00:42:02;;;;;;;23.38;21.20;;;30.40;92.60;;;;;;5050472;28;20230;-52
2021/03/18 00:44:32;;;;;;;23.85;21.75;;;30.40;92.70;;;;;;5061920;28;20201;-49
2021/03/18 00:47:03;;;;;;;24.55;22.30;;;30.50;92.70;;;;;;5065506;28;20231;-51
2021/03/18 00:49:34;;;;;;;24.70;22.40;;;30.50;92.70;;;;;;5064569;28;20214;-54
2021/03/18 00:52:05;;;;;;;24.80;22.55;;;30.50;92.70;;;;;;5062519;28;20236;-52
2021/03/18 00:54:35;;;;;;;25.52;22.83;;;30.60;92.70;;;;;;5065010;28;20202;-50
2021/03/18 00:57:08;;;;;;;26.02;23.60;;;30.60;92.60;;;;;;5065075;28;20194;-50
2021/03/18 00:59:38;;;;;;;27.13;24.52;;;30.70;92.60;;;;;;5065831;28;20895;-52
2021/03/18 01:02:15;;;;;;;26.58;24.17;;;30.80;92.70;;;;;;5061071;28;20212;-53
2021/03/18 01:04:47;;;;;;;24.80;22.55;;;30.90;92.60;;;;;;5055158;28;20289;-50
2021/03/18 01:07:18;;;;;;;24.50;22.40;;;30.90;92.50;;;;;;5065242;28;20218;-52
2021/03/18 01:09:48;;;;;;;27.55;24.95;;;30.90;92.50;;;;;;5065620;28;20194;-50
2021/03/18 01:12:20;;;;;;;27.10;24.60;;;31.00;92.70;;;;;;5063711;28;20212;-53
2021/03/18 01:14:51;;;;;;;27.52;24.77;;;31.10;92.20;;;;;;5063319;28;20220;-52
2021/03/18 01:17:21;;;;;;;27.27;24.80;;;31.10;92.00;;;;;;5051123;28;20600;-52
2021/03/18 01:19:52;;;;;;;26.45;23.95;;;31.20;92.00;;;;;;5059908;28;20194;-53
2021/03/18 01:22:22;;;;;;;24.80;22.23;;;31.20;91.90;;;;;;5050867;28;20212;-55
2021/03/18 01:24:55;;;;;;;24.80;22.65;;;31.30;91.80;;;;;;5061691;28;20200;-50
2021/03/18 01:27:27;;;;;;;23.92;21.80;;;31.30;91.60;;;;;;5041467;28;20726;-50
2021/03/18 01:29:57;;;;;;;24.27;22.08;;;31.40;91.50;;;;;;5040249;28;20280;-53
2021/03/18 01:32:36;;;;;;;23.80;21.70;;;31.40;91.40;;;;;;5037590;28;20214;-50
2021/03/18 01:35:11;;;;;;;24.70;22.42;;;31.50;91.30;;;;;;5038991;28;20213;-54
2021/03/18 01:37:42;;;;;;;24.05;21.77;;;31.50;91.00;;;;;;5030130;28;20217;-53
2021/03/18 01:40:13;;;;;;;23.70;21.58;;;31.60;91.00;;;;;;5027044;28;20194;-53
2021/03/18 01:42:45;;;;;;;23.38;21.23;;;31.60;90.90;;;;;;5038755;28;20202;-49
2021/03/18 01:45:16;;;;;;;22.25;20.23;;;31.60;90.80;;;;;;5029895;28;20222;-52
2021/03/18 01:47:49;;;;;;;23.73;21.35;;;31.70;90.80;;;;;;5026626;28;20275;-49
2021/03/18 01:50:21;;;;;;;22.30;20.25;;;31.70;90.50;;;;;;5029541;28;20807;-51
2021/03/18 01:52:51;;;;;;;23.70;21.33;;;31.80;90.40;;;;;;5050582;28;20209;-50
2021/03/18 01:55:24;;;;;;;25.80;23.33;;;31.90;90.20;;;;;;5053584;28;20215;-50
2021/03/18 01:57:55;;;;;;;23.40;21.30;;;31.90;89.50;;;;;;5063594;28;20291;-50
2021/03/18 02:00:26;;;;;;;25.73;23.33;;;31.90;89.30;;;;;;5066821;28;20271;-52
2021/03/18 02:02:58;;;;;;;23.92;21.88;;;31.90;88.00;;;;;;5062876;28;20197;-53
2021/03/18 02:05:29;;;;;;;24.63;22.38;;;32.00;87.60;;;;;;5065208;28;20673;-50
2021/03/18 02:08:00;;;;;;;24.38;22.25;;;32.00;86.90;;;;;;5066258;28;20268;-50
2021/03/18 02:10:31;;;;;;;23.25;21.08;;;32.00;86.60;;;;;;5065255;28;20189;-50
2021/03/18 02:13:04;;;;;;;23.60;21.20;;;32.10;86.50;;;;;;5065106;28;20267;-50
2021/03/18 02:15:35;;;;;;;24.33;22.13;;;32.10;86.40;;;;;;5063488;28;20200;-51
2021/03/18 02:18:08;;;;;;;28.25;25.65;;;32.10;86.10;;;;;;5067869;28;20271;-51
2021/03/18 02:21:04;;;;;;;27.67;25.00;;;32.20;84.30;;;;;;5061828;28;20225;-49
2021/03/18 02:24:07;;;;;;;26.52;24.10;;;32.20;82.80;;;;;;5064829;28;20229;-52
2021/03/18 02:27:18;;;;;;;25.27;22.70;;;32.20;82.60;;;;;;5066044;28;20626;-51
2021/03/18 02:30:20;;;;;;;24.60;22.33;;;32.20;83.80;;;;;;5061800;28;20756;-53
2021/03/18 02:33:25;;;;;;;27.95;25.35;;;32.30;83.30;;;;;;5036733;28;20209;-53
2021/03/18 02:35:58;;;;;;;28.17;25.67;;;32.30;82.30;;;;;;5039896;28;20222;-52
2021/03/18 02:38:30;;;;;;;24.05;21.83;;;32.30;82.40;;;;;;5066787;28;20203;-50
2021/03/18 02:41:03;;;;;;;24.45;22.20;;;32.30;83.40;;;;;;5066741;28;20201;-50
2021/03/18 02:43:37;;;;;;;23.45;21.27;;;32.30;83.40;;;;;;5054438;28;20198;-49
2021/03/18 02:46:07;;;;;;;22.77;20.67;;;32.40;83.30;;;;;;5052209;28;20201;-50
2021/03/18 02:48:38;;;;;;;25.83;23.42;;;32.40;83.20;;;;;;5052270;28;20228;-50
2021/03/18 02:51:13;;;;;;;24.75;22.48;;;32.40;82.90;;;;;;5053239;28;20809;-52
2021/03/18 02:53:43;;;;;;;24.25;22.10;;;32.50;82.70;;;;;;5067405;28;20545;-55
2021/03/18 02:56:17;;;;;;;22.63;20.55;;;32.50;82.90;;;;;;5062699;28;20581;-50
2021/03/18 02:58:48;;;;;;;27.77;25.27;;;32.60;82.70;;;;;;5065826;28;20193;-52
2021/03/18 03:01:18;;;;;;;26.10;23.55;;;32.60;81.30;;;;;;5055851;28;20742;-54
2021/03/18 03:03:49;;;;;;;28.05;25.38;;;32.70;81.80;;;;;;5066473;28;20649;-51
2021/03/18 03:06:21;;;;;;;24.60;22.30;;;32.70;81.40;;;;;;5066760;28;20206;-54
2021/03/18 03:08:52;;;;;;;23.60;21.55;;;32.80;81.70;;;;;;5066867;28;20300;-50
2021/03/18 03:11:23;;;;;;;25.02;22.67;;;32.80;82.40;;;;;;5065272;28;20247;-52
2021/03/18 03:13:53;;;;;;;24.17;21.83;;;32.90;82.60;;;;;;5066656;28;20677;-53
2021/03/18 03:16:24;;;;;;;28.08;25.48;;;33.00;82.20;;;;;;5067497;28;20633;-50
2021/03/18 03:18:55;;;;;;;28.13;25.52;;;33.10;78.20;;;;;;5051761;28;20649;-50
2021/03/18 03:21:27;;;;;;;29.58;26.63;;;33.10;78.00;;;;;;5066217;28;20257;-50
2021/03/18 03:23:57;;;;;;;27.15;24.67;;;33.20;77.10;;;;;;5066616;28;20202;-52
2021/03/18 03:26:28;;;;;;;23.52;21.35;;;33.20;77.70;;;;;;5012399;28;20281;-49
2021/03/18 03:28:59;;;;;;;26.70;24.15;;;33.30;78.60;;;;;;5019632;28;20222;-52
2021/03/18 03:31:30;;;;;;;25.45;23.17;;;33.30;77.80;;;;;;5023123;28;20195;-49
2021/03/18 03:34:04;;;;;;;24.02;21.75;;;33.30;77.60;;;;;;5021032;28;20730;-52
2021/03/18 03:36:36;;;;;;;23.33;21.35;;;33.40;78.10;;;;;;5021813;28;20196;-51
2021/03/18 03:39:07;;;;;;;22.33;20.42;;;33.50;78.10;;;;;;5009279;28;20207;-49
2021/03/18 03:41:38;;;;;;;26.13;23.75;;;33.60;78.60;;;;;;5013106;28;20210;-49
2021/03/18 03:44:08;;;;;;;24.92;22.77;;;33.70;75.30;;;;;;5015494;28;20290;-49
2021/03/18 03:46:39;;;;;;;22.00;20.02;;;33.80;75.50;;;;;;5017671;28;20286;-52
2021/03/18 03:49:10;;;;;;;22.63;20.73;;;33.90;76.40;;;;;;5016589;28;20227;-48
2021/03/18 03:51:46;;;;;;;25.15;22.95;;;34.00;76.30;;;;;;5008977;28;20227;-50
2021/03/18 03:54:17;;;;;;;24.05;21.95;;;34.10;74.10;;;;;;5025724;28;20213;-50
2021/03/18 03:56:51;;;;;;;23.10;21.02;;;34.10;74.20;;;;;;4966018;28;20324;-54
2021/03/18 03:59:21;;;;;;;22.27;20.38;;;34.30;75.50;;;;;;4967108;28;20693;-50
2021/03/18 04:01:54;;;;;;;23.33;21.10;;;34.30;75.20;;;;;;4928897;29;20241;-51
2021/03/18 04:04:29;;;;;;;23.67;21.58;;;34.40;75.00;;;;;;4928540;29;20613;-50
2021/03/18 04:07:02;;;;;;;24.15;21.92;;;34.50;74.40;;;;;;4928160;29;20210;-50
2021/03/18 04:09:32;;;;;;;24.25;22.05;;;34.60;74.00;;;;;;4928399;29;20214;-50
2021/03/18 04:12:03;;;;;;;25.80;23.48;;;34.70;73.20;;;;;;4922500;29;20206;-51
2021/03/18 04:14:35;;;;;;;26.02;23.63;;;34.70;72.50;;;;;;4927338;29;20562;-50
2021/03/18 04:17:07;;;;;;;29.13;26.65;;;34.80;71.80;;;;;;4974755;28;20739;-50
2021/03/18 04:19:38;;;;;;;28.83;26.05;;;34.80;72.00;;;;;;4984893;28;20201;-49
2021/03/18 04:22:10;;;;;;;27.55;24.92;;;34.80;71.00;;;;;;4984051;28;20243;-49
2021/03/18 04:24:40;;;;;;;23.08;21.17;;;34.80;71.00;;;;;;4985515;28;20206;-50
2021/03/18 04:27:11;;;;;;;23.85;21.85;;;34.80;71.50;;;;;;4943434;29;20220;-51
2021/03/18 04:29:41;;;;;;;24.50;22.40;;;34.90;72.10;;;;;;4947044;29;20213;-50
2021/03/18 04:32:11;;;;;;;24.38;22.20;;;35.00;71.90;;;;;;4955889;28;20751;-53
2021/03/18 04:34:52;;;;;;;24.17;21.95;;;35.00;71.70;;;;;;5026060;28;20209;-53
2021/03/18 04:37:24;;;;;;;24.02;22.02;;;35.10;72.00;;;;;;5042855;28;20198;-53
2021/03/18 04:39:55;;;;;;;23.90;21.90;;;35.20;71.60;;;;;;5028137;28;20599;-52
2021/03/18 04:42:25;;;;;;;24.10;21.73;;;35.30;71.90;;;;;;5027004;28;20221;-53
2021/03/18 04:44:56;;;;;;;24.00;21.88;;;35.40;71.90;;;;;;5027614;28;20211;-52
2021/03/18 04:47:27;;;;;;;24.67;22.58;;;35.50;71.70;;;;;;5027859;28;20622;-50
2021/03/18 04:49:58;;;;;;;25.63;23.48;;;35.60;71.00;;;;;;5027958;28;20199;-50
2021/03/18 04:52:30;;;;;;;29.90;27.10;;;35.70;70.10;;;;;;5049290;28;20244;-51
2021/03/18 04:55:01;;;;;;;26.67;24.30;;;35.70;67.80;;;;;;5051924;28;20194;-50
2021/03/18 04:57:31;;;;;;;24.25;22.30;;;35.70;68.20;;;;;;5049978;28;20194;-49
2021/03/18 05:00:02;;;;;;;25.42;23.33;;;35.70;68.70;;;;;;5062416;28;20324;-50
2021/03/18 05:02:33;;;;;;;23.95;21.95;;;35.80;68.40;;;;;;5056079;28;20766;-51
2021/03/18 05:05:15;;;;;;;25.75;23.45;;;35.80;69.30;;;;;;5061763;28;20665;-54
2021/03/18 05:07:47;;;;;;;24.73;22.60;;;35.90;68.20;;;;;;5051701;28;20241;-53
2021/03/18 05:10:18;;;;;;;27.98;25.65;;;35.90;67.80;;;;;;5054861;28;20200;-52
2021/03/18 05:12:49;;;;;;;26.48;24.30;;;36.00;66.60;;;;;;5059055;28;20276;-53
2021/03/18 05:15:20;;;;;;;23.83;21.92;;;36.00;66.50;;;;;;5050163;28;20207;-48
2021/03/18 05:17:51;;;;;;;23.52;21.52;;;36.00;66.90;;;;;;5062035;28;20280;-49
2021/03/18 05:20:23;;;;;;;23.40;21.35;;;36.00;67.50;;;;;;5050660;28;20202;-49
2021/03/18 05:22:54;;;;;;;24.52;22.52;;;36.00;67.70;;;;;;5049732;28;20767;-49
2021/03/18 05:25:26;;;;;;;26.70;24.33;;;36.00;66.70;;;;;;5049255;28;20198;-51
2021/03/18 05:27:56;;;;;;;25.20;23.15;;;36.10;67.00;;;;;;5049509;28;20222;-52
2021/03/18 05:30:27;;;;;;;27.10;24.55;;;36.00;66.40;;;;;;5051901;28;20201;-53
2021/03/18 05:32:58;;;;;;;23.67;21.48;;;36.00;65.60;;;;;;5059571;28;20216;-49
2021/03/18 05:35:37;;;;;;;24.17;22.08;;;36.10;66.50;;;;;;5063040;28;20284;-49
2021/03/18 05:38:09;;;;;;;24.35;22.13;;;36.10;66.30;;;;;;5064717;28;20197;-49
2021/03/18 05:40:40;;;;;;;28.92;26.25;;;36.20;66.40;;;;;;5064534;28;20284;-50
2021/03/18 05:43:10;;;;;;;26.98;24.58;;;36.20;64.80;;;;;;5064572;28;20216;-47
2021/03/18 05:45:40;;;;;;;26.17;23.83;;;36.20;64.20;;;;;;5061885;28;20198;-48
2021/03/18 05:48:11;;;;;;;22.55;20.65;;;36.20;64.60;;;;;;5052365;28;20224;-49
2021/03/18 05:50:42;;;;;;;28.98;26.42;;;36.30;65.50;;;;;;5060984;28;20235;-51
2021/03/18 05:53:14;;;;;;;25.65;23.50;;;36.30;64.40;;;;;;5054545;28;20859;-49
2021/03/18 05:55:44;;;;;;;24.10;21.95;;;36.30;65.00;;;;;;5054991;28;20197;-50
2021/03/18 05:58:15;;;;;;;23.27;21.13;;;36.40;65.50;;;;;;5064316;28;20190;-48
2021/03/18 06:00:45;;;;;;;23.58;21.58;;;36.40;65.80;;;;;;5063622;28;20271;-53
2021/03/18 06:03:16;;;;;;;26.83;24.40;;;36.40;66.40;;;;;;5053510;28;20209;-52
2021/03/18 06:06:02;;;;;;;24.30;22.10;;;36.50;65.40;;;;;;5057637;28;20205;-50
2021/03/18 06:08:34;;;;;;;25.80;23.52;;;36.60;65.80;;;;;;5058716;28;20220;-53
2021/03/18 06:11:05;;;;;;;23.52;21.45;;;36.60;65.80;;;;;;5064857;28;20206;-53
2021/03/18 06:13:36;;;;;;;23.30;21.33;;;36.70;65.70;;;;;;5054996;28;20229;-53
2021/03/18 06:16:08;;;;;;;26.42;24.00;;;36.80;65.80;;;;;;5056014;28;20197;-52
2021/03/18 06:18:38;;;;;;;23.42;21.30;;;36.80;64.80;;;;;;5059809;28;20202;-53
2021/03/18 06:21:09;;;;;;;27.15;24.45;;;36.90;65.50;;;;;;5049094;28;20294;-53
2021/03/18 06:23:41;;;;;;;26.55;24.15;;;36.90;64.80;;;;;;5049442;28;20198;-52
2021/03/18 06:26:11;;;;;;;23.70;21.65;;;36.90;64.70;;;;;;5049036;28;20194;-52
2021/03/18 06:28:42;;;;;;;22.92;20.85;;;36.90;64.50;;;;;;5062373;28;20608;-48
2021/03/18 06:31:13;;;;;;;26.08;23.63;;;36.90;64.90;;;;;;5060726;28;20205;-50
2021/03/18 06:33:45;;;;;;;25.63;23.15;;;36.90;64.50;;;;;;5054586;28;20238;-50
2021/03/18 06:36:25;;;;;;;24.20;21.98;;;36.90;64.30;;;;;;5065093;28;20201;-51
2021/03/18 06:39:01;;;;;;;37.25;27.45;;;36.90;64.50;;;;;;5065842;28;20227;-51
2021/03/18 06:41:36;;;;;;;28.27;25.67;;;36.90;64.10;;;;;;5067973;28;20657;-54
2021/03/18 06:44:18;;;;;;;25.40;23.00;;;36.80;64.30;;;;;;5066876;28;20205;-53
2021/03/18 06:46:48;;;;;;;25.50;23.08;;;36.80;64.80;;;;;;5052833;28;20525;-49
2021/03/18 06:49:19;;;;;;;26.20;23.67;;;36.70;64.80;;;;;;5052836;28;20213;-54
2021/03/18 06:52:02;;;;;;;23.65;21.48;;;36.70;65.00;;;;;;5055914;28;20233;-50
2021/03/18 06:54:36;;;;;;;27.60;25.05;;;36.60;65.30;;;;;;5053075;28;20201;-49
2021/03/18 06:57:20;;;;;;;25.80;23.52;;;36.60;64.80;;;;;;5064695;28;20209;-50
2021/03/18 06:59:50;;;;;;;25.20;22.90;;;36.60;65.20;;;;;;5061116;28;20322;-50
2021/03/18 07:02:21;;;;;;;24.35;22.10;;;36.60;65.30;;;;;;5064992;28;20217;-49
2021/03/18 07:04:52;;;;;;;28.10;25.67;;;36.60;65.50;;;;;;5052903;28;20260;-49
2021/03/18 07:07:24;;;;;;;27.52;25.13;;;36.60;64.50;;;;;;5056019;28;20256;-49
2021/03/18 07:09:57;;;;;;;24.58;22.38;;;36.50;64.40;;;;;;5060824;28;20197;-52
2021/03/18 07:12:29;;;;;;;27.05;24.48;;;36.60;65.00;;;;;;5059270;28;20203;-49
2021/03/18 07:15:00;;;;;;;25.88;23.48;;;36.60;64.90;;;;;;5053527;28;20654;-48
2021/03/18 07:17:32;;;;;;;27.85;25.55;;;36.60;65.00;;;;;;5065867;28;20202;-50
2021/03/18 07:20:14;;;;;;;25.85;23.50;;;36.60;64.50;;;;;;5051967;28;20274;-48
2021/03/18 07:22:46;;;;;;;24.77;22.58;;;36.60;64.30;;;;;;5061527;28;20222;-50
2021/03/18 07:25:19;;;;;;;26.95;24.45;;;36.60;64.70;;;;;;5057101;28;20339;-50
2021/03/18 07:27:51;;;;;;;27.00;24.63;;;36.70;64.40;;;;;;5055564;28;20296;-50
2021/03/18 07:30:28;;;;;;;28.25;25.80;;;36.70;64.20;;;;;;5062190;28;20305;-49
2021/03/18 07:32:58;;;;;;;24.75;22.55;;;36.70;63.50;;;;;;5063980;28;20668;-49
2021/03/18 07:35:30;;;;;;;25.52;23.20;;;36.70;64.10;;;;;;5065512;28;20201;-49
2021/03/18 07:38:01;;;;;;;26.73;24.33;;;36.70;64.50;;;;;;5060810;28;20232;-49
2021/03/18 07:40:34;;;;;;;25.70;23.48;;;36.70;63.90;;;;;;5058200;28;20217;-49
2021/03/18 07:43:04;;;;;;;27.38;24.75;;;36.70;63.90;;;;;;5063032;28;20284;-51
2021/03/18 07:45:36;;;;;;;23.55;21.35;;;36.70;63.20;;;;;;5063026;28;20201;-51
2021/03/18 07:48:07;;;;;;;26.25;24.05;;;36.70;63.80;;;;;;5055931;28;20877;-51
2021/03/18 07:50:39;;;;;;;26.73;24.20;;;36.80;63.90;;;;;;5065894;28;20752;-54
2021/03/18 07:53:11;;;;;;;24.88;22.58;;;36.70;63.50;;;;;;5017270;28;20273;-49
2021/03/18 07:55:42;;;;;;;25.35;23.05;;;36.70;63.60;;;;;;5017495;28;20253;-50
2021/03/18 07:58:13;;;;;;;24.33;22.20;;;36.70;63.30;;;;;;5014443;28;20200;-50
2021/03/18 08:00:44;;;;;;;24.30;22.15;;;36.60;63.50;;;;;;5018529;28;20326;-52
2021/03/18 08:03:29;;;;;;;25.45;23.25;;;36.60;63.40;;;;;;5023614;28;20205;-49
2021/03/18 08:06:00;;;;;;;24.83;22.65;;;36.60;63.20;;;;;;5008964;28;20210;-53
2021/03/18 08:08:42;;;;;;;24.05;21.77;;;36.60;63.50;;;;;;5022559;28;20938;-52
2021/03/18 08:11:15;;;;;;;24.98;22.42;;;36.60;63.60;;;;;;5017524;28;20194;-54
2021/03/18 08:13:45;;;;;;;26.48;24.08;;;36.60;64.00;;;;;;5014526;28;20928;-50
2021/03/18 08:16:31;;;;;;;25.77;23.52;;;36.50;63.80;;;;;;5008818;28;20203;-50
2021/03/18 08:19:04;;;;;;;23.13;21.23;;;36.50;64.00;;;;;;5063032;28;20193;-49
2021/03/18 08:21:38;;;;;;;24.45;22.25;;;36.40;64.20;;;;;;5061501;28;20194;-49
2021/03/18 08:24:10;;;;;;;22.30;20.20;;;36.30;64.60;;;;;;5061224;28;20201;-50
2021/03/18 08:26:44;;;;;;;23.10;21.02;;;36.30;65.10;;;;;;5065145;28;20199;-52
2021/03/18 08:29:21;;;;;;;20.75;18.92;;;36.30;65.00;;;;;;5064262;28;20249;-50
2021/03/18 08:31:59;;;;;;;24.88;22.60;;;36.40;65.30;;;;;;5066298;28;20197;-49
2021/03/18 08:34:47;;;;;;;25.08;22.77;;;36.40;64.00;;;;;;5065802;28;20397;-49
2021/03/18 08:37:32;;;;;;;25.73;23.23;;;36.40;63.80;;;;;;5064630;28;20698;-51
2021/03/18 08:40:03;;;;;;;24.63;22.40;;;36.40;64.40;;;;;;5017924;28;20202;-51
2021/03/18 08:42:44;;;;;;;23.98;21.75;;;36.40;64.50;;;;;;5022626;28;20202;-49
2021/03/18 08:45:39;;;;;;;23.67;21.67;;;36.30;64.70;;;;;;5010225;28;20210;-50
2021/03/18 08:48:12;;;;;;;25.70;23.30;;;36.30;64.80;;;;;;5003361;28;20242;-49
2021/03/18 08:51:05;;;;;;;23.90;21.80;;;36.20;65.00;;;;;;5007422;28;20227;-49
2021/03/18 08:53:37;;;;;;;22.60;20.50;;;36.20;65.70;;;;;;5018323;28;20583;-50
2021/03/18 08:56:08;;;;;;;23.88;21.67;;;36.20;65.70;;;;;;5022458;28;20199;-50
2021/03/18 08:58:50;;;;;;;26.20;23.58;;;36.20;65.50;;;;;;5022842;28;20201;-49
2021/03/18 09:01:21;;;;;;;24.55;22.45;;;36.20;65.00;;;;;;5022161;28;20245;-51
2021/03/18 09:04:01;;;;;;;22.02;20.23;;;36.20;65.50;;;;;;5007603;28;20215;-52
2021/03/18 09:06:33;;;;;;;22.27;20.27;;;36.20;65.70;;;;;;5013804;28;20314;-49
2021/03/18 09:09:05;;;;;;;24.08;21.98;;;36.20;65.30;;;;;;5007301;28;20251;-49
2021/03/18 09:11:35;;;;;;;24.88;22.75;;;36.30;65.20;;;;;;5054509;28;20241;-49
2021/03/18 09:14:07;;;;;;;22.92;20.83;;;36.30;64.80;;;;;;5050958;28;20263;-49
2021/03/18 09:16:39;;;;;;;23.67;21.58;;;36.30;64.90;;;;;;5050060;28;20259;-52
2021/03/18 09:19:13;;;;;;;22.63;20.73;;;36.40;64.60;;;;;;5006926;28;20204;-53
2021/03/18 09:21:44;;;;;;;22.63;20.52;;;36.40;64.70;;;;;;5019026;28;20263;-50
2021/03/18 09:24:15;;;;;;;21.38;19.63;;;36.40;65.00;;;;;;5008113;28;20211;-53
2021/03/18 09:26:45;;;;;;;22.80;20.80;;;36.40;64.70;;;;;;5021388;28;20211;-50
2021/03/18 09:29:17;;;;;;;24.65;22.35;;;36.50;64.30;;;;;;5022593;28;20713;-50
2021/03/18 09:31:47;;;;;;;22.70;20.60;;;36.50;63.90;;;;;;4982687;28;20638;-51
2021/03/18 09:34:18;;;;;;;22.67;20.70;;;36.60;64.20;;;;;;4982280;28;20212;-49
2021/03/18 09:36:49;;;;;;;22.20;20.10;;;36.60;64.20;;;;;;4969517;28;20284;-51
2021/03/18 09:39:19;;;;;;;22.50;20.52;;;36.60;64.10;;;;;;4944307;29;20211;-53
2021/03/18 09:41:50;;;;;;;23.50;21.25;;;36.60;63.40;;;;;;4939514;29;20304;-52
2021/03/18 09:44:23;;;;;;;24.63;22.25;;;36.60;63.10;;;;;;4941587;29;20209;-51
2021/03/18 09:46:54;;;;;;;24.75;22.45;;;36.70;63.50;;;;;;4942498;29;20467;-51
2021/03/18 09:49:29;;;;;;;25.77;23.48;;;36.70;63.60;;;;;;4941129;28;20340;-51
2021/03/18 09:52:00;;;;;;;23.88;21.77;;;36.70;63.30;;;;;;4994747;28;20965;-52
2021/03/18 09:54:30;;;;;;;23.08;21.15;;;36.70;63.00;;;;;;4998845;28;20207;-49
2021/03/18 09:57:01;;;;;;;23.92;21.75;;;36.70;62.60;;;;;;5003554;28;20219;-50
2021/03/18 09:59:33;;;;;;;23.75;21.40;;;36.70;62.50;;;;;;5008058;28;20239;-53
2021/03/18 10:02:03;;;;;;;23.70;21.50;;;36.80;62.40;;;;;;5013241;28;20198;-54
2021/03/18 10:04:39;;;;;;;23.92;21.83;;;36.70;62.10;;;;;;5020488;28;20229;-53
2021/03/18 10:07:10;;;;;;;22.67;20.60;;;36.70;61.90;;;;;;5020790;28;20436;-53
2021/03/18 10:09:41;;;;;;;23.52;21.27;;;36.70;61.70;;;;;;5017297;28;20330;-50
2021/03/18 10:12:12;;;;;;;26.40;24.00;;;36.70;61.70;;;;;;5058539;28;20306;-52
2021/03/18 10:14:45;;;;;;;24.63;22.33;;;36.70;61.50;;;;;;5067980;28;20559;-52
2021/03/18 10:17:17;;;;;;;22.80;20.42;;;36.60;61.70;;;;;;5067626;28;20216;-55
2021/03/18 10:19:53;;;;;;;24.55;22.33;;;36.60;62.10;;;;;;5066785;28;20389;-51
2021/03/18 10:22:36;;;;;;;23.13;21.13;;;36.60;61.80;;;;;;5045435;28;20309;-51
2021/03/18 10:25:11;;;;;;;20.33;18.52;;;36.50;61.60;;;;;;5036020;28;20207;-53
2021/03/18 10:27:42;;;;;;;21.77;19.88;;;36.50;62.10;;;;;;5043653;28;20555;-52
2021/03/18 10:30:17;;;;;;;23.75;21.45;;;36.50;62.40;;;;;;5037327;28;20377;-49
2021/03/18 10:33:04;;;;;;;24.83;22.42;;;36.50;62.30;;;;;;5044033;28;20278;-50
2021/03/18 10:35:35;;;;;;;20.95;19.25;;;36.50;62.00;;;;;;5042486;28;20360;-51
2021/03/18 10:38:09;;;;;;;20.73;19.05;;;36.40;62.40;;;;;;5031359;28;20222;-52
2021/03/18 10:40:42;;;;;;;20.58;18.88;;;36.40;62.60;;;;;;5041047;28;20396;-50
2021/03/18 10:43:24;;;;;;;20.77;18.77;;;36.40;62.80;;;;;;5045077;28;20230;-49
2021/03/18 10:45:56;;;;;;;18.63;16.98;;;36.50;63.30;;;;;;5044568;28;20625;-53
2021/03/18 10:48:27;;;;;;;19.58;17.83;;;36.40;63.30;;;;;;5032975;28;20964;-51
2021/03/18 10:51:04;;;;;;;19.80;18.10;;;36.40;63.70;;;;;;5041709;28;20261;-54
2021/03/18 10:53:36;;;;;;;20.50;18.48;;;36.40;64.00;;;;;;5048353;28;20275;-49
2021/03/18 10:56:12;;;;;;;20.23;18.25;;;36.30;64.30;;;;;;5065092;28;20311;-50
2021/03/18 10:58:42;;;;;;;20.33;18.25;;;36.30;64.50;;;;;;5052786;28;20202;-49
2021/03/18 11:01:15;;;;;;;21.02;18.95;;;36.20;64.70;;;;;;5060139;28;20233;-51
2021/03/18 11:03:48;;;;;;;19.23;17.48;;;36.20;65.00;;;;;;5067169;28;20225;-49
2021/03/18 11:06:19;;;;;;;19.15;17.42;;;36.10;65.00;;;;;;5062205;28;20601;-49
2021/03/18 11:08:50;;;;;;;19.95;18.20;;;36.00;65.00;;;;;;5062487;28;20225;-49
2021/03/18 11:11:21;;;;;;;20.63;18.75;;;36.00;65.00;;;;;;5065597;28;20295;-49
2021/03/18 11:13:52;;;;;;;26.73;24.23;;;35.90;65.10;;;;;;5059339;28;20205;-49
2021/03/18 11:16:26;;;;;;;21.60;19.60;;;35.80;65.20;;;;;;5012527;28;20687;-49
2021/03/18 11:18:58;;;;;;;19.65;17.83;;;35.70;65.60;;;;;;5016370;28;20203;-50
2021/03/18 11:21:29;;;;;;;19.55;17.85;;;35.60;65.70;;;;;;5009327;28;20218;-50
2021/03/18 11:24:07;;;;;;;19.13;17.27;;;35.50;66.00;;;;;;5015911;28;20899;-50
2021/03/18 11:26:37;;;;;;;18.73;17.10;;;35.50;66.50;;;;;;5024303;28;20242;-49
2021/03/18 11:29:09;;;;;;;17.25;15.75;;;35.40;66.30;;;;;;5020254;28;20218;-49
2021/03/18 11:31:42;;;;;;;18.00;16.30;;;35.40;66.70;;;;;;5023342;28;20314;-50
2021/03/18 11:34:16;;;;;;;17.58;16.05;;;35.30;67.00;;;;;;5017846;28;20564;-50
2021/03/18 11:36:47;;;;;;;17.48;15.82;;;35.20;67.30;;;;;;5008741;28;20298;-50
2021/03/18 11:39:18;;;;;;;17.10;15.60;;;35.10;67.40;;;;;;5020639;28;20214;-50
2021/03/18 11:41:48;;;;;;;18.05;16.35;;;35.10;67.60;;;;;;5012790;28;20565;-51
2021/03/18 11:44:19;;;;;;;17.67;16.02;;;35.00;68.00;;;;;;5012434;28;20281;-50
2021/03/18 11:46:51;;;;;;;16.60;15.20;;;34.90;68.20;;;;;;5027846;28;20217;-50
2021/03/18 11:49:24;;;;;;;17.98;16.33;;;34.90;68.60;;;;;;5064014;28;20217;-51
2021/03/18 11:51:54;;;;;;;17.05;15.35;;;34.80;68.70;;;;;;5051871;28;20229;-48
2021/03/18 11:54:24;;;;;;;17.60;16.05;;;34.80;69.00;;;;;;5051696;28;20571;-50
2021/03/18 11:56:55;;;;;;;16.10;14.70;;;34.70;69.30;;;;;;5051072;28;20212;-50
2021/03/18 11:59:25;;;;;;;16.80;15.05;;;34.70;69.50;;;;;;5051347;28;20292;-50
2021/03/18 12:01:57;;;;;;;17.30;15.77;;;34.60;69.80;;;;;;5051463;28;20305;-53
2021/03/18 12:04:28;;;;;;;17.17;15.48;;;34.50;70.00;;;;;;5065202;28;20206;-50
2021/03/18 12:06:59;;;;;;;17.15;15.48;;;34.50;70.20;;;;;;5066394;28;20189;-49
2021/03/18 12:09:29;;;;;;;17.52;15.85;;;34.40;70.50;;;;;;5065824;28;20229;-50
2021/03/18 12:11:59;;;;;;;17.67;16.17;;;34.40;70.80;;;;;;5059662;28;20193;-53
2021/03/18 12:14:30;;;;;;;17.02;15.32;;;34.30;71.00;;;;;;5064546;28;20205;-50
2021/03/18 12:17:02;;;;;;;17.83;16.23;;;34.30;71.30;;;;;;5058506;28;20206;-50
2021/03/18 12:19:33;;;;;;;17.77;15.98;;;34.30;71.60;;;;;;5055435;28;20724;-53
2021/03/18 12:22:03;;;;;;;16.95;15.30;;;34.20;71.70;;;;;;5050954;28;20224;-53
2021/03/18 12:24:34;;;;;;;17.45;15.25;;;34.20;72.00;;;;;;5051705;28;20202;-52
2021/03/18 12:27:05;;;;;;;16.17;14.48;;;34.10;72.20;;;;;;5065424;28;20569;-54
2021/03/18 12:29:36;;;;;;;15.90;14.35;;;34.10;72.50;;;;;;5055439;28;20681;-52
2021/03/18 12:32:08;;;;;;;16.02;14.52;;;34.00;72.60;;;;;;5050386;28;20681;-54
2021/03/18 12:34:39;;;;;;;15.75;14.30;;;33.90;72.90;;;;;;5050090;28;20213;-49
2021/03/18 12:37:09;;;;;;;15.95;14.35;;;33.90;72.90;;;;;;5063816;28;20194;-52
2021/03/18 12:39:40;;;;;;;15.10;13.80;;;33.90;73.10;;;;;;5066303;28;20558;-51
2021/03/18 12:42:11;;;;;;;16.17;14.57;;;33.80;73.30;;;;;;5065582;28;20202;-53
2021/03/18 12:44:41;;;;;;;16.73;15.25;;;33.70;73.50;;;;;;5062542;28;20662;-48
2021/03/18 12:47:14;;;;;;;16.08;14.52;;;33.70;73.70;;;;;;5064400;28;20214;-52
2021/03/18 12:49:44;;;;;;;15.45;13.85;;;33.60;74.10;;;;;;5065487;28;20253;-49
2021/03/18 12:52:15;;;;;;;15.95;14.45;;;33.60;74.20;;;;;;5065709;28;20203;-50
2021/03/18 12:54:45;;;;;;;14.85;13.55;;;33.50;74.30;;;;;;5064506;28;20574;-51
2021/03/18 12:57:15;;;;;;;15.75;14.05;;;33.50;74.60;;;;;;5063870;28;20263;-48